Rheintal — V2MA5 — position and weather

sailwx.info

Track history (hours):
 
Tides and Currents Weather Stations Pressure Air Temp Water Temp Dewpoint Dewpoint Depression Visibility Wind Speed Wind Dir Waves Ship Positions

Rheintal

Last reported at 2018-Jan-18 10:01 UTC. Time now 2018-Jan-18 10:14 UTC.
Position N 48°18' W 004°41'.

Length 101 m; draft 4 m.

Type: Cargo ship. MMSI: 304285000.

Date/timePositionNaut miles runAvg speedWind from/ knotsBaromVisibWave heightAir tempDewpointWater temp
2018-Jan-18 10:01N 48°18' W 004°41'612.2
2018-Jan-18 09:30N 48°21' W 004°33'4 6.7
2018-Jan-18 08:58N 48°23' W 004°28'0 0.0
2018-Jan-18 08:28N 48°23' W 004°28'0 0.0
2018-Jan-18 07:58N 48°23' W 004°28'0 0.0
2018-Jan-18 07:28N 48°23' W 004°28'0 0.0
2018-Jan-18 06:58N 48°23' W 004°28'0 0.0
2018-Jan-18 06:28N 48°23' W 004°28'0 0.0
2018-Jan-18 05:58N 48°23' W 004°28'0 0.0
2018-Jan-18 05:28N 48°23' W 004°28'0 0.0
2018-Jan-18 04:58N 48°23' W 004°28'0 0.0
2018-Jan-18 04:28N 48°23' W 004°28'0 0.0
2018-Jan-18 03:58N 48°23' W 004°28'0 0.0
2018-Jan-18 03:28N 48°23' W 004°28'0 0.0
2018-Jan-18 02:58N 48°23' W 004°28'0 0.0
2018-Jan-18 02:28N 48°23' W 004°28'0 0.0
2018-Jan-18 01:58N 48°23' W 004°28'0 0.0
2018-Jan-18 01:25N 48°23' W 004°28'0 0.0
2018-Jan-18 00:58N 48°23' W 004°28'0 0.0
2018-Jan-17 23:58N 48°23' W 004°28'0 0.0
2018-Jan-17 23:58N 48°23' W 004°28'  
2018-Jan-12 15:00N 51°25' E 003°25'713.5
2018-Jan-12 14:29N 51°25' E 003°36'511.2
2018-Jan-12 14:00N 51°23' E 003°44'4 8.6
2018-Jan-12 13:30N 51°20' E 003°49'1 1.1
2018-Jan-12 13:01N 51°19' E 003°49'4 7.0
2018-Jan-12 12:31N 51°16' E 003°50'4 7.5
2018-Jan-12 12:00N 51°12' E 003°48'3 7.0
2018-Jan-12 11:31N 51°09' E 003°48'0 0.0
2018-Jan-12 06:51N 51°09' E 003°48'0 0.0
2018-Jan-12 06:21N 51°09' E 003°48'0 0.0
2018-Jan-12 05:51N 51°09' E 003°48'0 0.0
2018-Jan-12 05:03N 51°09' E 003°48'0 0.1
2018-Jan-12 04:57N 51°09' E 003°48'0 0.0
2018-Jan-12 04:27N 51°09' E 003°48'0 0.0
2018-Jan-12 03:57N 51°09' E 003°48'0 0.0
2018-Jan-12 03:27N 51°09' E 003°48'0 0.0
2018-Jan-12 02:57N 51°09' E 003°48'0 0.0
2018-Jan-12 02:27N 51°09' E 003°48'0 0.0
2018-Jan-12 01:51N 51°09' E 003°48'0 0.0
2018-Jan-12 01:27N 51°09' E 003°48'0 0.0
2018-Jan-12 00:57N 51°09' E 003°48'0 0.0
2018-Jan-12 00:27N 51°09' E 003°48'0 0.0
2018-Jan-11 23:57N 51°09' E 003°48'0 0.0
2018-Jan-11 22:51N 51°09' E 003°48'0 0.0
2018-Jan-11 21:51N 51°09' E 003°48'0 0.1
2018-Jan-11 21:28N 51°09' E 003°48'0 0.0
2018-Jan-11 20:58N 51°09' E 003°48'0 0.0
2018-Jan-11 20:28N 51°09' E 003°48'0 0.0
2018-Jan-11 19:16N 51°09' E 003°48'0 0.0
2018-Jan-11 18:58N 51°09' E 003°48'0 0.0
2018-Jan-11 18:10N 51°09' E 003°48'0 0.0
2018-Jan-11 17:58N 51°09' E 003°48'0 0.0
2018-Jan-11 17:28N 51°09' E 003°48'0 0.0
2018-Jan-11 16:34N 51°09' E 003°48'0 0.0
2018-Jan-11 16:16N 51°09' E 003°48'0 0.0
2018-Jan-11 15:19N 51°09' E 003°48'0 0.0
2018-Jan-11 15:00N 51°09' E 003°48'2 3.8
2018-Jan-11 14:30N 51°11' E 003°48'4 7.1
2018-Jan-11 13:58N 51°14' E 003°49'3 7.0
2018-Jan-11 13:30N 51°17' E 003°50'1 1.8
2018-Jan-11 13:01N 51°18' E 003°50'0 0.6
2018-Jan-11 12:30N 51°19' E 003°50'1 2.5
2018-Jan-11 12:00N 51°20' E 003°49'0 0.6
2018-Jan-11 11:29N 51°20' E 003°49'3 6.6
2018-Jan-11 11:00N 51°22' E 003°45'510.2
2018-Jan-11 10:30N 51°26' E 003°40'2 3.9
2018-Jan-11 10:00N 51°27' E 003°43'0 0.0
2018-Jan-11 09:24N 51°27' E 003°43'0 0.0
2018-Jan-11 09:00N 51°27' E 003°43'0 0.0
2018-Jan-11 08:06N 51°27' E 003°43'0 0.1
2018-Jan-11 08:00N 51°27' E 003°43'0 0.0
2018-Jan-11 07:18N 51°27' E 003°43'0 0.0
2018-Jan-11 06:30N 51°27' E 003°43'0 0.0
2018-Jan-11 05:54N 51°27' E 003°43'0 0.0
2018-Jan-11 05:24N 51°27' E 003°43'0 0.0
2018-Jan-11 04:42N 51°27' E 003°43'0 0.0
2018-Jan-11 04:30N 51°27' E 003°43'0 0.0
2018-Jan-11 04:00N 51°27' E 003°43'0 0.0
2018-Jan-11 03:30N 51°27' E 003°43'0 0.0
2018-Jan-11 03:00N 51°27' E 003°43'0 0.0
2018-Jan-11 02:30N 51°27' E 003°43'0 0.0
2018-Jan-11 01:42N 51°27' E 003°43'0 0.0
2018-Jan-11 01:12N 51°27' E 003°43'0 0.0
2018-Jan-11 00:54N 51°27' E 003°43'0 0.0
2018-Jan-11 00:24N 51°27' E 003°43'0 0.0
2018-Jan-11 00:00N 51°27' E 003°43'0 0.0
2018-Jan-10 23:06N 51°27' E 003°43'0 0.0
2018-Jan-10 22:36N 51°27' E 003°43'0 0.0
2018-Jan-10 22:30N 51°27' E 003°43'0 0.0
2018-Jan-10 21:42N 51°27' E 003°43'0 0.0
2018-Jan-10 21:30N 51°27' E 003°43'0 0.0
2018-Jan-10 21:00N 51°27' E 003°43'0 0.0
2018-Jan-10 20:30N 51°27' E 003°43'0 0.0
2018-Jan-10 20:00N 51°27' E 003°43'0 0.0
2018-Jan-10 19:30N 51°27' E 003°43'0 0.0
2018-Jan-10 18:42N 51°27' E 003°43'0 0.0
2018-Jan-10 18:30N 51°27' E 003°43'0 0.0
2018-Jan-10 17:54N 51°27' E 003°43'0 0.0
2018-Jan-10 17:30N 51°27' E 003°43'0 0.0
2018-Jan-10 16:48N 51°27' E 003°43'0 0.0
2018-Jan-10 16:30N 51°27' E 003°43'0 0.0
2018-Jan-10 16:00N 51°27' E 003°43'0 0.0
2018-Jan-10 15:24N 51°27' E 003°43'0 0.0
2018-Jan-10 15:00N 51°27' E 003°43'0 0.0
2018-Jan-10 14:30N 51°27' E 003°43'0 0.0
2018-Jan-10 14:00N 51°27' E 003°43'0 0.0
2018-Jan-10 13:26N 51°27' E 003°43'0 0.0
2018-Jan-10 12:59N 51°27' E 003°43'0 0.0
2018-Jan-10 12:26N 51°27' E 003°43'0 0.0
2018-Jan-10 11:50N 51°27' E 003°43'0 0.0
2018-Jan-10 11:08N 51°27' E 003°43'0 0.0
2018-Jan-10 10:53N 51°27' E 003°43'0 0.0
2018-Jan-10 10:26N 51°27' E 003°43'0 0.0
2018-Jan-10 09:56N 51°27' E 003°43'0 0.0
2018-Jan-10 09:20N 51°27' E 003°43'0 0.0
2018-Jan-10 08:50N 51°27' E 003°43'0 0.0
2018-Jan-10 07:44N 51°27' E 003°43'0 0.0
2018-Jan-10 07:20N 51°27' E 003°43'0 0.0
2018-Jan-10 06:59N 51°27' E 003°43'0 0.0
2018-Jan-10 06:26N 51°27' E 003°43'0 0.0
2018-Jan-10 05:56N 51°27' E 003°43'0 0.0
2018-Jan-10 05:26N 51°27' E 003°43'0 0.0
2018-Jan-10 04:59N 51°27' E 003°43'0 0.0
2018-Jan-10 04:26N 51°27' E 003°43'0 0.0
2018-Jan-10 03:38N 51°27' E 003°43'0 0.0
2018-Jan-10 03:20N 51°27' E 003°43'0 0.0
2018-Jan-10 02:59N 51°27' E 003°43'0 0.0
2018-Jan-10 02:14N 51°27' E 003°43'0 0.0
2018-Jan-10 01:56N 51°27' E 003°43'0 0.0
2018-Jan-10 01:20N 51°27' E 003°43'0 0.0
2018-Jan-10 00:56N 51°27' E 003°43'0 0.0
2018-Jan-09 23:20N 51°27' E 003°43'0 0.0
2018-Jan-09 22:32N 51°27' E 003°43'0 0.0
2018-Jan-09 22:20N 51°27' E 003°43'0 0.0
2018-Jan-09 21:56N 51°27' E 003°43'0 0.0
2018-Jan-09 20:38N 51°27' E 003°43'0 0.0
2018-Jan-09 20:02N 51°27' E 003°43'0 0.0
2018-Jan-09 19:56N 51°27' E 003°43'0 0.0
2018-Jan-09 19:26N 51°27' E 003°43'0 0.0
2018-Jan-09 18:20N 51°27' E 003°43'0 0.0
2018-Jan-09 17:59N 51°27' E 003°43'0 0.0
2018-Jan-09 17:02N 51°27' E 003°43'0 0.0
2018-Jan-09 16:38N 51°27' E 003°43'0 0.0
2018-Jan-09 16:20N 51°27' E 003°43'0 0.0
2018-Jan-09 15:50N 51°27' E 003°43'0 0.0
2018-Jan-09 15:26N 51°27' E 003°43'0 0.0
2018-Jan-09 14:56N 51°27' E 003°43'0 0.0
2018-Jan-09 14:20N 51°27' E 003°43'0 0.0
2018-Jan-09 13:56N 51°27' E 003°43'0 0.0
2018-Jan-09 13:26N 51°27' E 003°43'0 0.0
2018-Jan-09 11:56N 51°27' E 003°43'0 0.0
2018-Jan-09 11:30N 51°27' E 003°43'2 3.3
2018-Jan-09 11:01N 51°27' E 003°41'5 9.3
2018-Jan-09 10:29N 51°25' E 003°33'5 9.7
2018-Jan-09 10:01N 51°25' E 003°26'510.5
2018-Jan-09 09:30N 51°24' E 003°17'611.6
2018-Jan-09 09:01N 51°24' E 003°08'612.0
2018-Jan-09 08:30N 51°23' E 002°59'612.4
2018-Jan-09 08:00N 51°23' E 002°49'4 7.7
2018-Jan-09 07:30N 51°22' E 002°42'1 2.5
2018-Jan-09 07:00N 51°22' E 002°40'2 3.5
2018-Jan-09 06:29N 51°22' E 002°38'4 9.1
2018-Jan-09 06:00N 51°22' E 002°31'611.3
2018-Jan-09 05:30N 51°20' E 002°22'611.3
2018-Jan-09 04:59N 51°17' E 002°14'510.9
2018-Jan-09 04:30N 51°14' E 002°07'510.7
2018-Jan-09 04:00N 51°11' E 001°60'510.3
2018-Jan-09 03:30N 51°09' E 001°53'5 9.8
2018-Jan-09 03:00N 51°06' E 001°47'5 9.3
2018-Jan-09 02:30N 51°02' E 001°41'5 8.9
2018-Jan-09 02:00N 50°59' E 001°37'5 8.0
2018-Jan-09 01:23N 50°55' E 001°31'74 8.3
2018-Jan-08 16:30N 50°16' W 000°07'610.8
2018-Jan-08 15:59N 50°15' W 000°15'611.1
2018-Jan-08 15:29N 50°13' W 000°24'611.6
2018-Jan-08 15:00N 50°12' W 000°32'612.1
2018-Jan-08 14:28N 50°10' W 000°42'612.4
2018-Jan-08 13:58N 50°08' W 000°51'  
Track history (hours):
 
Tides and Currents Weather Stations Pressure Air Temp Water Temp Dewpoint Dewpoint Depression Visibility Wind Speed Wind Dir Waves Ship Positions

Rheintal

Last reported at 2018-Jan-18 10:01 UTC. Time now 2018-Jan-18 10:14 UTC.
Position N 48°18' W 004°41'.

Length 101 m; draft 4 m.

Type: Cargo ship. MMSI: 304285000.

Date/timePositionNaut miles runAvg speedWind from/ knotsBaromVisibWave heightAir tempDewpointWater temp
2018-Jan-18 10:01N 48°18' W 004°41'612.2
2018-Jan-18 09:30N 48°21' W 004°33'4 6.7
2018-Jan-18 08:58N 48°23' W 004°28'0 0.0
2018-Jan-18 08:28N 48°23' W 004°28'0 0.0
2018-Jan-18 07:58N 48°23' W 004°28'0 0.0
2018-Jan-18 07:28N 48°23' W 004°28'0 0.0
2018-Jan-18 06:58N 48°23' W 004°28'0 0.0
2018-Jan-18 06:28N 48°23' W 004°28'0 0.0
2018-Jan-18 05:58N 48°23' W 004°28'0 0.0
2018-Jan-18 05:28N 48°23' W 004°28'0 0.0
2018-Jan-18 04:58N 48°23' W 004°28'0 0.0
2018-Jan-18 04:28N 48°23' W 004°28'0 0.0
2018-Jan-18 03:58N 48°23' W 004°28'0 0.0
2018-Jan-18 03:28N 48°23' W 004°28'0 0.0
2018-Jan-18 02:58N 48°23' W 004°28'0 0.0
2018-Jan-18 02:28N 48°23' W 004°28'0 0.0
2018-Jan-18 01:58N 48°23' W 004°28'0 0.0
2018-Jan-18 01:25N 48°23' W 004°28'0 0.0
2018-Jan-18 00:58N 48°23' W 004°28'0 0.0
2018-Jan-17 23:58N 48°23' W 004°28'0 0.0
2018-Jan-17 23:58N 48°23' W 004°28'  
2018-Jan-12 15:00N 51°25' E 003°25'713.5
2018-Jan-12 14:29N 51°25' E 003°36'511.2
2018-Jan-12 14:00N 51°23' E 003°44'4 8.6
2018-Jan-12 13:30N 51°20' E 003°49'1 1.1
2018-Jan-12 13:01N 51°19' E 003°49'4 7.0
2018-Jan-12 12:31N 51°16' E 003°50'4 7.5
2018-Jan-12 12:00N 51°12' E 003°48'3 7.0
2018-Jan-12 11:31N 51°09' E 003°48'0 0.0
2018-Jan-12 06:51N 51°09' E 003°48'0 0.0
2018-Jan-12 06:21N 51°09' E 003°48'0 0.0
2018-Jan-12 05:51N 51°09' E 003°48'0 0.0
2018-Jan-12 05:03N 51°09' E 003°48'0 0.1
2018-Jan-12 04:57N 51°09' E 003°48'0 0.0
2018-Jan-12 04:27N 51°09' E 003°48'0 0.0
2018-Jan-12 03:57N 51°09' E 003°48'0 0.0
2018-Jan-12 03:27N 51°09' E 003°48'0 0.0
2018-Jan-12 02:57N 51°09' E 003°48'0 0.0
2018-Jan-12 02:27N 51°09' E 003°48'0 0.0
2018-Jan-12 01:51N 51°09' E 003°48'0 0.0
2018-Jan-12 01:27N 51°09' E 003°48'0 0.0
2018-Jan-12 00:57N 51°09' E 003°48'0 0.0
2018-Jan-12 00:27N 51°09' E 003°48'0 0.0
2018-Jan-11 23:57N 51°09' E 003°48'0 0.0
2018-Jan-11 22:51N 51°09' E 003°48'0 0.0
2018-Jan-11 21:51N 51°09' E 003°48'0 0.1
2018-Jan-11 21:28N 51°09' E 003°48'0 0.0
2018-Jan-11 20:58N 51°09' E 003°48'0 0.0
2018-Jan-11 20:28N 51°09' E 003°48'0 0.0
2018-Jan-11 19:16N 51°09' E 003°48'0 0.0
2018-Jan-11 18:58N 51°09' E 003°48'0 0.0
2018-Jan-11 18:10N 51°09' E 003°48'0 0.0
2018-Jan-11 17:58N 51°09' E 003°48'0 0.0
2018-Jan-11 17:28N 51°09' E 003°48'0 0.0
2018-Jan-11 16:34N 51°09' E 003°48'0 0.0
2018-Jan-11 16:16N 51°09' E 003°48'0 0.0
2018-Jan-11 15:19N 51°09' E 003°48'0 0.0
2018-Jan-11 15:00N 51°09' E 003°48'2 3.8
2018-Jan-11 14:30N 51°11' E 003°48'4 7.1
2018-Jan-11 13:58N 51°14' E 003°49'3 7.0
2018-Jan-11 13:30N 51°17' E 003°50'1 1.8
2018-Jan-11 13:01N 51°18' E 003°50'0 0.6
2018-Jan-11 12:30N 51°19' E 003°50'1 2.5
2018-Jan-11 12:00N 51°20' E 003°49'0 0.6
2018-Jan-11 11:29N 51°20' E 003°49'3 6.6
2018-Jan-11 11:00N 51°22' E 003°45'510.2
2018-Jan-11 10:30N 51°26' E 003°40'2 3.9
2018-Jan-11 10:00N 51°27' E 003°43'0 0.0
2018-Jan-11 09:24N 51°27' E 003°43'0 0.0
2018-Jan-11 09:00N 51°27' E 003°43'0 0.0
2018-Jan-11 08:06N 51°27' E 003°43'0 0.1
2018-Jan-11 08:00N 51°27' E 003°43'0 0.0
2018-Jan-11 07:18N 51°27' E 003°43'0 0.0
2018-Jan-11 06:30N 51°27' E 003°43'0 0.0
2018-Jan-11 05:54N 51°27' E 003°43'0 0.0
2018-Jan-11 05:24N 51°27' E 003°43'0 0.0
2018-Jan-11 04:42N 51°27' E 003°43'0 0.0
2018-Jan-11 04:30N 51°27' E 003°43'0 0.0
2018-Jan-11 04:00N 51°27' E 003°43'0 0.0
2018-Jan-11 03:30N 51°27' E 003°43'0 0.0
2018-Jan-11 03:00N 51°27' E 003°43'0 0.0
2018-Jan-11 02:30N 51°27' E 003°43'0 0.0
2018-Jan-11 01:42N 51°27' E 003°43'0 0.0
2018-Jan-11 01:12N 51°27' E 003°43'0 0.0
2018-Jan-11 00:54N 51°27' E 003°43'0 0.0
2018-Jan-11 00:24N 51°27' E 003°43'0 0.0
2018-Jan-11 00:00N 51°27' E 003°43'0 0.0
2018-Jan-10 23:06N 51°27' E 003°43'0 0.0
2018-Jan-10 22:36N 51°27' E 003°43'0 0.0
2018-Jan-10 22:30N 51°27' E 003°43'0 0.0
2018-Jan-10 21:42N 51°27' E 003°43'0 0.0
2018-Jan-10 21:30N 51°27' E 003°43'0 0.0
2018-Jan-10 21:00N 51°27' E 003°43'0 0.0
2018-Jan-10 20:30N 51°27' E 003°43'0 0.0
2018-Jan-10 20:00N 51°27' E 003°43'0 0.0
2018-Jan-10 19:30N 51°27' E 003°43'0 0.0
2018-Jan-10 18:42N 51°27' E 003°43'0 0.0
2018-Jan-10 18:30N 51°27' E 003°43'0 0.0
2018-Jan-10 17:54N 51°27' E 003°43'0 0.0
2018-Jan-10 17:30N 51°27' E 003°43'0 0.0
2018-Jan-10 16:48N 51°27' E 003°43'0 0.0
2018-Jan-10 16:30N 51°27' E 003°43'0 0.0
2018-Jan-10 16:00N 51°27' E 003°43'0 0.0
2018-Jan-10 15:24N 51°27' E 003°43'0 0.0
2018-Jan-10 15:00N 51°27' E 003°43'0 0.0
2018-Jan-10 14:30N 51°27' E 003°43'0 0.0
2018-Jan-10 14:00N 51°27' E 003°43'0 0.0
2018-Jan-10 13:26N 51°27' E 003°43'0 0.0
2018-Jan-10 12:59N 51°27' E 003°43'0 0.0
2018-Jan-10 12:26N 51°27' E 003°43'0 0.0
2018-Jan-10 11:50N 51°27' E 003°43'0 0.0
2018-Jan-10 11:08N 51°27' E 003°43'0 0.0
2018-Jan-10 10:53N 51°27' E 003°43'0 0.0
2018-Jan-10 10:26N 51°27' E 003°43'0 0.0
2018-Jan-10 09:56N 51°27' E 003°43'0 0.0
2018-Jan-10 09:20N 51°27' E 003°43'0 0.0
2018-Jan-10 08:50N 51°27' E 003°43'0 0.0
2018-Jan-10 07:44N 51°27' E 003°43'0 0.0
2018-Jan-10 07:20N 51°27' E 003°43'0 0.0
2018-Jan-10 06:59N 51°27' E 003°43'0 0.0
2018-Jan-10 06:26N 51°27' E 003°43'0 0.0
2018-Jan-10 05:56N 51°27' E 003°43'0 0.0
2018-Jan-10 05:26N 51°27' E 003°43'0 0.0
2018-Jan-10 04:59N 51°27' E 003°43'0 0.0
2018-Jan-10 04:26N 51°27' E 003°43'0 0.0
2018-Jan-10 03:38N 51°27' E 003°43'0 0.0
2018-Jan-10 03:20N 51°27' E 003°43'0 0.0
2018-Jan-10 02:59N 51°27' E 003°43'0 0.0
2018-Jan-10 02:14N 51°27' E 003°43'0 0.0
2018-Jan-10 01:56N 51°27' E 003°43'0 0.0
2018-Jan-10 01:20N 51°27' E 003°43'0 0.0
2018-Jan-10 00:56N 51°27' E 003°43'0 0.0
2018-Jan-09 23:20N 51°27' E 003°43'0 0.0
2018-Jan-09 22:32N 51°27' E 003°43'0 0.0
2018-Jan-09 22:20N 51°27' E 003°43'0 0.0
2018-Jan-09 21:56N 51°27' E 003°43'0 0.0
2018-Jan-09 20:38N 51°27' E 003°43'0 0.0
2018-Jan-09 20:02N 51°27' E 003°43'0 0.0
2018-Jan-09 19:56N 51°27' E 003°43'0 0.0
2018-Jan-09 19:26N 51°27' E 003°43'0 0.0
2018-Jan-09 18:20N 51°27' E 003°43'0 0.0
2018-Jan-09 17:59N 51°27' E 003°43'0 0.0
2018-Jan-09 17:02N 51°27' E 003°43'0 0.0
2018-Jan-09 16:38N 51°27' E 003°43'0 0.0
2018-Jan-09 16:20N 51°27' E 003°43'0 0.0
2018-Jan-09 15:50N 51°27' E 003°43'0 0.0
2018-Jan-09 15:26N 51°27' E 003°43'0 0.0
2018-Jan-09 14:56N 51°27' E 003°43'0 0.0
2018-Jan-09 14:20N 51°27' E 003°43'0 0.0
2018-Jan-09 13:56N 51°27' E 003°43'0 0.0
2018-Jan-09 13:26N 51°27' E 003°43'0 0.0
2018-Jan-09 11:56N 51°27' E 003°43'0 0.0
2018-Jan-09 11:30N 51°27' E 003°43'2 3.3
2018-Jan-09 11:01N 51°27' E 003°41'5 9.3
2018-Jan-09 10:29N 51°25' E 003°33'5 9.7
2018-Jan-09 10:01N 51°25' E 003°26'510.5
2018-Jan-09 09:30N 51°24' E 003°17'611.6
2018-Jan-09 09:01N 51°24' E 003°08'612.0
2018-Jan-09 08:30N 51°23' E 002°59'612.4
2018-Jan-09 08:00N 51°23' E 002°49'4 7.7
2018-Jan-09 07:30N 51°22' E 002°42'1 2.5
2018-Jan-09 07:00N 51°22' E 002°40'2 3.5
2018-Jan-09 06:29N 51°22' E 002°38'4 9.1
2018-Jan-09 06:00N 51°22' E 002°31'611.3
2018-Jan-09 05:30N 51°20' E 002°22'611.3
2018-Jan-09 04:59N 51°17' E 002°14'510.9
2018-Jan-09 04:30N 51°14' E 002°07'510.7
2018-Jan-09 04:00N 51°11' E 001°60'510.3
2018-Jan-09 03:30N 51°09' E 001°53'5 9.8
2018-Jan-09 03:00N 51°06' E 001°47'5 9.3
2018-Jan-09 02:30N 51°02' E 001°41'5 8.9
2018-Jan-09 02:00N 50°59' E 001°37'5 8.0
2018-Jan-09 01:23N 50°55' E 001°31'74 8.3
2018-Jan-08 16:30N 50°16' W 000°07'610.8
2018-Jan-08 15:59N 50°15' W 000°15'611.1
2018-Jan-08 15:29N 50°13' W 000°24'611.6
2018-Jan-08 15:00N 50°12' W 000°32'612.1
2018-Jan-08 14:28N 50°10' W 000°42'612.4
2018-Jan-08 13:58N 50°08' W 000°51'  

Dump ship's entire track history